Time;durP1;ratioP1;P1;durP2;ratioP2;P2;SDS_P1;SDS_P2;PMS_P1;PMS_P2;Temp;Humidity;BMP_temperature;BMP_pressure;BME280_temperature;BME280_humidity;BME280_pressure;Samples;Min_cycle;Max_cycle;Signal;HPM_P1;HPM_P2
2022/05/08 00:01:13;;;;;;;8.35;5.22;;;;;;;19.35;37.80;101693.78;5076472;28;20147;-72
2022/05/08 00:03:39;;;;;;;10.40;5.70;;;;;;;19.22;37.52;101699.09;5075779;28;20048;-71
2022/05/08 00:06:10;;;;;;;8.50;5.68;;;;;;;18.98;38.36;101695.72;5074255;28;20135;-71
2022/05/08 00:08:38;;;;;;;10.45;5.57;;;;;;;18.91;38.42;101694.75;5074902;28;20046;-71
2022/05/08 00:11:05;;;;;;;10.93;5.53;;;;;;;18.69;38.83;101698.47;5073674;28;20127;-71
2022/05/08 00:13:33;;;;;;;7.68;4.70;;;;;;;18.96;38.49;101700.47;5056537;28;20492;-73
2022/05/08 00:16:14;;;;;;;10.63;4.95;;;;;;;19.56;37.40;101692.09;5075590;28;20050;-71
2022/05/08 00:18:40;;;;;;;11.40;5.45;;;;;;;19.49;37.26;101692.03;5075011;28;20411;-71
2022/05/08 00:21:07;;;;;;;6.95;5.00;;;;;;;19.58;37.04;101698.16;5074531;28;20148;-70
2022/05/08 00:23:33;;;;;;;7.57;5.00;;;;;;;19.46;37.10;101690.53;5074301;28;20492;-71
2022/05/08 00:26:00;;;;;;;6.63;5.07;;;;;;;19.20;37.58;101696.56;5074899;28;20064;-72
2022/05/08 00:28:26;;;;;;;10.70;5.22;;;;;;;19.21;37.65;101692.81;5073752;28;20562;-72
2022/05/08 00:30:53;;;;;;;9.30;5.32;;;;;;;18.70;39.02;101692.84;5073075;28;20071;-71
2022/05/08 00:33:19;;;;;;;8.80;5.22;;;;;;;18.98;38.10;101684.84;5063442;28;20432;-71
2022/05/08 00:35:45;;;;;;;6.80;4.25;;;;;;;18.58;38.77;101683.47;5074765;28;20070;-71
2022/05/08 00:38:12;;;;;;;10.75;4.50;;;;;;;18.97;38.21;101680.44;5069508;28;20100;-71
2022/05/08 00:40:38;;;;;;;14.02;4.53;;;;;;;18.96;38.25;101680.59;5074864;28;20067;-71
2022/05/08 00:43:31;;;;;;;10.90;5.25;;;;;;;18.26;39.58;101684.75;5075247;28;20131;-71
2022/05/08 00:45:58;;;;;;;7.97;4.10;;;;;;;18.87;38.27;101688.03;5076455;28;20405;-71
2022/05/08 00:48:25;;;;;;;9.60;4.40;;;;;;;18.76;38.64;101691.25;5076113;28;20055;-71
2022/05/08 00:50:52;;;;;;;9.20;4.60;;;;;;;18.59;38.93;101689.78;5074256;28;20106;-72
2022/05/08 00:53:19;;;;;;;8.63;4.95;;;;;;;17.97;39.87;101694.53;5074797;28;20072;-71
2022/05/08 00:55:47;;;;;;;6.57;4.78;;;;;;;18.28;39.42;101688.97;5076089;28;20451;-71
2022/05/08 00:58:17;;;;;;;9.18;5.07;;;;;;;18.27;39.31;101689.13;5073232;28;20067;-72
2022/05/08 01:00:44;;;;;;;7.38;4.90;;;;;;;18.76;37.90;101693.97;5074061;28;20060;-72
2022/05/08 01:03:11;;;;;;;7.93;4.35;;;;;;;18.43;38.41;101694.38;5073659;28;20068;-72
2022/05/08 01:09:44;;;;;;;9.63;3.00;;;;;;;18.76;36.33;101691.25;5072853;28;20073;-72
2022/05/08 01:12:11;;;;;;;6.80;2.80;;;;;;;18.81;36.15;101691.50;5073027;28;20133;-72
2022/05/08 01:14:37;;;;;;;4.38;2.75;;;;;;;18.91;35.79;101694.75;5071685;28;20127;-71
2022/05/08 01:17:04;;;;;;;6.32;3.30;;;;;;;18.46;35.68;101695.88;5072781;28;20055;-71
2022/05/08 01:19:30;;;;;;;3.60;1.92;;;;;;;18.29;35.34;101696.06;5070648;28;20041;-72
2022/05/08 01:21:57;;;;;;;6.75;1.70;;;;;;;18.49;34.93;101687.34;5071443;28;20360;-72
2022/05/08 01:24:24;;;;;;;4.40;1.77;;;;;;;18.43;34.44;101688.94;5073631;28;20080;-71
2022/05/08 01:26:50;;;;;;;3.88;1.92;;;;;;;18.54;34.58;101693.06;5072080;28;20107;-71
2022/05/08 01:29:18;;;;;;;4.45;1.58;;;;;;;18.62;34.25;101689.38;5070517;28;20110;-71
2022/05/08 01:31:45;;;;;;;3.65;1.77;;;;;;;18.33;34.59;101699.25;5073753;28;20044;-72
2022/05/08 01:34:11;;;;;;;3.00;2.17;;;;;;;18.47;34.22;101692.97;5073352;28;20442;-72
2022/05/08 01:36:41;;;;;;;4.75;2.00;;;;;;;18.16;34.90;101690.44;5074608;28;20068;-71
2022/05/08 01:39:08;;;;;;;4.80;2.10;;;;;;;18.64;34.11;101699.03;5073629;28;20510;-71
2022/05/08 01:41:34;;;;;;;4.22;1.90;;;;;;;18.40;34.56;101696.63;5073673;28;20080;-71
2022/05/08 01:44:01;;;;;;;2.55;1.83;;;;;;;18.43;34.95;101691.66;5073396;28;20139;-71
2022/05/08 01:46:27;;;;;;;3.20;1.90;;;;;;;17.76;36.17;101694.41;5073678;28;20504;-71
2022/05/08 01:48:54;;;;;;;4.90;1.75;;;;;;;18.04;35.57;101698.19;5065949;28;20045;-71
2022/05/08 01:51:22;;;;;;;2.92;1.60;;;;;;;17.16;37.53;101693.31;5072277;28;20127;-71
2022/05/08 01:53:48;;;;;;;4.20;2.20;;;;;;;16.94;38.33;101697.72;5073674;28;20060;-72
2022/05/08 01:56:15;;;;;;;3.83;1.90;;;;;;;16.87;38.85;101704.88;5073176;28;20075;-71
2022/05/08 01:58:41;;;;;;;4.90;2.30;;;;;;;17.32;37.89;101704.06;5073893;28;20051;-71
2022/05/08 02:01:09;;;;;;;4.45;2.70;;;;;;;17.67;37.59;101700.94;5071534;28;20068;-71
2022/05/08 02:03:36;;;;;;;6.07;3.38;;;;;;;17.75;37.39;101700.84;5073767;28;20102;-71
2022/05/08 02:06:02;;;;;;;5.90;2.72;;;;;;;17.39;38.54;101704.22;5071899;28;20076;-71
2022/05/08 02:08:29;;;;;;;9.48;3.20;;;;;;;17.09;39.16;101698.66;5073367;28;20434;-71
2022/05/08 02:10:55;;;;;;;6.57;3.53;;;;;;;17.13;39.26;101699.97;5072267;28;20127;-71
2022/05/08 02:13:22;;;;;;;4.72;3.00;;;;;;;17.50;38.88;101711.06;5072682;28;20059;-72
2022/05/08 02:15:49;;;;;;;5.25;3.30;;;;;;;17.72;38.43;101709.38;5072187;28;20135;-72
2022/05/08 02:18:15;;;;;;;5.10;3.28;;;;;;;17.68;38.65;101710.75;5072219;28;20062;-72
2022/05/08 02:20:42;;;;;;;7.15;3.30;;;;;;;17.75;38.58;101720.72;5071252;28;20457;-72
2022/05/08 02:23:09;;;;;;;7.50;2.65;;;;;;;17.48;38.55;101715.84;5072844;28;20150;-72
2022/05/08 02:25:36;;;;;;;4.03;1.90;;;;;;;17.01;39.16;101717.66;5077192;28;20067;-71
2022/05/08 02:28:03;;;;;;;4.30;2.00;;;;;;;16.89;38.92;101710.97;5076243;28;20485;-71
2022/05/08 02:30:30;;;;;;;5.10;1.70;;;;;;;17.09;38.87;101708.63;5075828;28;20107;-71
2022/05/08 02:32:57;;;;;;;4.78;1.98;;;;;;;16.84;39.24;101705.22;5077409;28;20524;-72
2022/05/08 02:35:24;;;;;;;8.25;2.10;;;;;;;16.91;38.86;101711.63;5076498;28;20068;-72
2022/05/08 02:37:53;;;;;;;5.28;1.40;;;;;;;17.25;38.08;101713.94;5077414;28;20120;-71
2022/05/08 02:40:22;;;;;;;3.10;1.85;;;;;;;16.98;38.86;101720.72;5075975;28;20557;-71
2022/05/08 02:42:49;;;;;;;5.43;1.63;;;;;;;17.17;38.33;101718.59;5075591;28;20068;-72
2022/05/08 02:45:15;;;;;;;4.78;1.83;;;;;;;17.46;37.63;101720.59;5075691;28;20074;-72
2022/05/08 02:47:42;;;;;;;5.35;2.00;;;;;;;17.49;37.48;101725.69;5077633;28;20076;-72
2022/05/08 02:50:09;;;;;;;2.50;1.83;;;;;;;17.73;37.42;101732.78;5075667;28;20048;-71
2022/05/08 02:52:41;;;;;;;4.93;2.15;;;;;;;17.90;37.08;101734.31;5078309;28;20078;-72
2022/05/08 03:00:42;;;;;;;10.43;2.30;;;;;;;17.72;38.76;101720.25;5075677;28;20056;-72
2022/05/08 03:03:09;;;;;;;23.75;3.80;;;;;;;17.16;44.77;101714.19;5073156;28;20056;-73
2022/05/08 03:05:36;;;;;;;14.70;4.47;;;;;;;22.15;36.31;101715.72;5083816;28;20173;-72
2022/05/08 03:08:07;;;;;;;14.32;4.55;;;;;;;21.13;39.30;101715.03;5087496;28;20044;-72
2022/05/08 03:13:20;;;;;;;11.50;6.47;;;;;;;21.09;38.93;101732.00;5092168;28;20049;-71
2022/05/08 03:15:47;;;;;;;13.00;7.38;;;;;;;20.89;38.97;101737.41;5091091;28;20125;-71
2022/05/08 03:18:14;;;;;;;14.60;7.28;;;;;;;20.63;41.17;101735.41;5092421;28;20064;-71
2022/05/08 03:20:41;;;;;;;12.18;7.13;;;;;;;21.11;39.51;101738.97;5090698;28;20071;-71
2022/05/08 03:23:07;;;;;;;11.63;6.93;;;;;;;20.71;39.68;101734.38;5088969;28;20040;-71
2022/05/08 03:25:34;;;;;;;11.90;6.78;;;;;;;20.61;39.77;101740.22;5079253;28;20049;-71
2022/05/08 03:28:01;;;;;;;11.30;6.07;;;;;;;20.37;40.62;101739.63;5087132;28;20051;-71
2022/05/08 03:30:28;;;;;;;11.02;6.05;;;;;;;20.52;40.00;101741.41;5085660;28;20040;-71
2022/05/08 03:32:56;;;;;;;10.55;5.95;;;;;;;20.57;40.17;101737.06;5084269;28;20047;-71
2022/05/08 03:35:22;;;;;;;12.10;6.43;;;;;;;20.54;40.59;101744.78;5082810;28;20044;-72
2022/05/08 03:37:49;;;;;;;10.30;5.78;;;;;;;20.32;40.80;101747.56;5083530;28;20538;-70
2022/05/08 03:40:15;;;;;;;9.63;5.88;;;;;;;20.42;40.85;101753.53;5081960;28;20519;-71
2022/05/08 03:42:42;;;;;;;9.18;5.45;;;;;;;20.27;41.55;101755.50;5080404;28;20068;-71
2022/05/08 03:45:09;;;;;;;7.70;5.88;;;;;;;20.37;40.80;101755.16;5081476;28;20044;-71
2022/05/08 03:47:36;;;;;;;10.13;5.47;;;;;;;20.54;40.71;101758.41;5080928;28;20052;-71
2022/05/08 03:50:03;;;;;;;10.05;5.13;;;;;;;20.52;40.52;101753.16;5081297;28;20072;-71
2022/05/08 03:52:30;;;;;;;9.82;5.18;;;;;;;20.35;40.53;101749.91;5080603;28;20052;-72
2022/05/08 03:54:57;;;;;;;11.60;4.97;;;;;;;20.39;40.37;101751.19;5079766;28;20048;-71
2022/05/08 03:57:23;;;;;;;15.05;5.10;;;;;;;20.41;40.19;101756.44;5081048;28;20051;-71
2022/05/08 03:59:50;;;;;;;10.20;4.88;;;;;;;20.35;40.63;101752.63;5080261;28;20083;-71
2022/05/08 04:02:16;;;;;;;7.90;4.50;;;;;;;20.40;39.56;101760.22;5080182;28;20044;-71
2022/05/08 04:04:43;;;;;;;12.15;4.63;;;;;;;20.20;40.20;101758.16;5079742;28;20048;-71
2022/05/08 04:07:09;;;;;;;13.68;4.80;;;;;;;20.28;39.46;101773.56;5081449;28;20044;-71
2022/05/08 04:09:36;;;;;;;9.38;4.57;;;;;;;20.23;38.73;101772.44;5079724;28;20139;-71
2022/05/08 04:12:02;;;;;;;10.63;3.55;;;;;;;19.72;38.93;101768.06;5082033;28;20127;-71
2022/05/08 04:14:29;;;;;;;11.48;4.03;;;;;;;19.73;39.10;101767.03;5080725;28;20047;-71
2022/05/08 04:16:55;;;;;;;14.07;4.22;;;;;;;19.42;39.77;101773.63;5069895;28;20071;-70
2022/05/08 04:19:22;;;;;;;10.40;3.95;;;;;;;19.36;39.47;101777.09;5080794;28;20071;-71
2022/05/08 04:21:49;;;;;;;11.55;4.40;;;;;;;19.39;39.26;101770.44;5080144;28;20048;-71
2022/05/08 04:24:18;;;;;;;18.33;4.00;;;;;;;19.62;39.24;101776.53;5079550;28;20044;-71
2022/05/08 04:26:47;;;;;;;17.85;3.97;;;;;;;19.53;38.77;101782.31;5069488;28;20127;-71
2022/05/08 04:29:14;;;;;;;12.50;3.72;;;;;;;19.30;39.23;101777.88;5086537;28;20045;-70
2022/05/08 04:31:40;;;;;;;12.48;3.97;;;;;;;19.58;38.49;101779.81;5087311;28;20033;-71
2022/05/08 04:34:07;;;;;;;15.65;4.25;;;;;;;19.53;38.76;101779.56;5082535;28;20048;-70
2022/05/08 04:36:33;;;;;;;12.00;3.67;;;;;;;19.83;38.34;101777.56;5074777;28;20052;-71
2022/05/08 04:39:00;;;;;;;15.80;4.95;;;;;;;19.58;38.24;101785.25;5083275;28;20040;-71
2022/05/08 04:41:27;;;;;;;16.55;4.15;;;;;;;19.93;38.25;101780.81;5081915;28;20046;-71
2022/05/08 04:43:59;;;;;;;13.48;4.07;;;;;;;19.98;37.75;101786.50;5080445;28;20053;-71
2022/05/08 04:46:27;;;;;;;24.30;6.63;;;;;;;19.81;37.18;101782.38;5082129;28;20048;-71
2022/05/08 04:48:53;;;;;;;15.38;5.40;;;;;;;19.92;36.48;101790.84;5081635;28;20055;-71
2022/05/08 04:51:20;;;;;;;13.70;3.85;;;;;;;19.85;36.61;101805.47;5080642;28;20094;-71
2022/05/08 04:53:46;;;;;;;15.20;4.30;;;;;;;19.72;36.57;101806.16;5082375;28;20487;-71
2022/05/08 04:56:13;;;;;;;12.27;3.72;;;;;;;19.35;36.98;101821.69;5080322;28;20068;-71
2022/05/08 04:58:40;;;;;;;18.60;3.45;;;;;;;19.62;37.00;101819.22;5080128;28;20071;-72
2022/05/08 05:01:07;;;;;;;15.73;3.90;;;;;;;19.39;37.02;101822.13;5080274;28;20104;-71
2022/05/08 05:03:33;;;;;;;14.32;3.90;;;;;;;19.12;36.93;101815.53;5079383;28;20046;-72
2022/05/08 05:06:00;;;;;;;14.82;3.80;;;;;;;19.46;36.86;101820.31;5068542;28;20133;-71
2022/05/08 05:08:26;;;;;;;12.68;3.88;;;;;;;19.22;36.41;101829.69;5075588;28;20041;-71
2022/05/08 05:10:53;;;;;;;18.98;3.70;;;;;;;19.65;35.84;101827.00;5078023;28;20468;-71
2022/05/08 05:13:20;;;;;;;15.85;3.70;;;;;;;19.50;35.74;101829.78;5077848;28;20044;-71
2022/05/08 05:15:46;;;;;;;19.92;4.00;;;;;;;19.69;35.90;101829.19;5077606;28;20104;-70
2022/05/08 05:18:13;;;;;;;15.40;3.17;;;;;;;19.44;36.46;101830.56;5068814;28;20048;-71
2022/05/08 05:20:40;;;;;;;15.20;3.47;;;;;;;19.65;35.54;101830.56;5077970;28;20060;-71
2022/05/08 05:23:07;;;;;;;10.80;3.45;;;;;;;19.28;35.66;101831.66;5077801;28;20051;-70
2022/05/08 05:25:34;;;;;;;17.02;3.55;;;;;;;19.67;34.77;101836.72;5081035;28;20064;-72
2022/05/08 05:28:00;;;;;;;16.48;3.53;;;;;;;19.59;34.42;101836.81;5078106;28;20049;-71
2022/05/08 05:30:33;;;;;;;11.13;3.17;;;;;;;19.58;33.72;101836.97;5068589;28;20037;-71
2022/05/08 05:33:00;;;;;;;22.33;4.40;;;;;;;19.43;33.34;101840.59;5078105;28;20049;-70
2022/05/08 05:35:27;;;;;;;16.15;3.65;;;;;;;19.17;34.52;101843.84;5080699;28;20064;-71
2022/05/08 05:37:53;;;;;;;11.18;3.58;;;;;;;19.40;33.49;101851.88;5079349;28;20445;-70
2022/05/08 05:40:20;;;;;;;21.25;3.72;;;;;;;19.09;33.97;101843.94;5080648;28;20060;-71
2022/05/08 05:42:47;;;;;;;14.60;3.42;;;;;;;19.35;33.53;101856.22;5081381;28;20128;-71
2022/05/08 05:45:13;;;;;;;16.60;4.35;;;;;;;19.49;33.40;101852.59;5080947;28;20045;-71
2022/05/08 05:47:49;;;;;;;19.27;5.38;;;;;;;18.93;33.99;101850.44;5081193;28;20067;-71
2022/05/08 05:50:17;;;;;;;13.77;3.47;;;;;;;19.47;33.22;101857.38;5079736;28;20064;-70
2022/05/08 05:52:44;;;;;;;19.98;3.88;;;;;;;19.42;33.02;101862.56;5077188;28;20048;-70
2022/05/08 05:55:10;;;;;;;19.10;3.80;;;;;;;19.41;33.00;101860.88;5077329;28;20095;-71
2022/05/08 05:57:37;;;;;;;28.95;7.80;;;;;;;18.97;33.64;101864.50;5066700;28;20136;-71
2022/05/08 06:00:04;;;;;;;22.45;4.72;;;;;;;19.53;32.94;101853.06;5078185;28;20072;-71
2022/05/08 06:02:31;;;;;;;27.90;5.72;;;;;;;19.48;32.66;101854.50;5077145;28;20055;-72
2022/05/08 06:04:57;;;;;;;16.20;4.35;;;;;;;19.48;32.21;101859.94;5074841;28;20048;-72
2022/05/08 06:07:24;;;;;;;20.20;3.75;;;;;;;19.55;32.60;101854.53;5074527;28;20044;-71
2022/05/08 06:09:50;;;;;;;11.75;3.25;;;;;;;19.88;32.07;101854.94;5072225;28;20423;-70
2022/05/08 06:12:17;;;;;;;13.32;3.33;;;;;;;19.86;31.92;101867.88;5071444;28;20044;-71
2022/05/08 06:14:46;;;;;;;19.50;3.88;;;;;;;20.11;32.06;101859.34;5049878;28;20048;-71
2022/05/08 06:17:13;;;;;;;15.35;3.55;;;;;;;20.21;31.41;101859.81;5072931;28;20433;-70
2022/05/08 06:19:40;;;;;;;21.95;3.85;;;;;;;20.31;31.10;101867.66;5073582;28;20048;-71
2022/05/08 06:22:06;;;;;;;20.70;4.60;;;;;;;20.48;30.62;101874.53;5069326;28;20040;-70
2022/05/08 06:24:34;;;;;;;20.58;4.18;;;;;;;20.60;30.49;101867.50;5076512;28;20508;-71
2022/05/08 06:27:01;;;;;;;17.42;4.00;;;;;;;20.72;30.49;101866.94;5075736;28;20127;-71
2022/05/08 06:29:28;;;;;;;29.85;4.10;;;;;;;20.75;30.16;101866.56;5074818;28;20139;-71
2022/05/08 06:31:54;;;;;;;21.60;4.50;;;;;;;19.81;30.65;101872.25;5074873;28;20059;-71
2022/05/08 06:34:20;;;;;;;75.03;10.45;;;;;;;20.75;28.64;101866.56;5074716;28;20075;-70
2022/05/08 06:36:47;;;;;;;18.10;4.70;;;;;;;21.02;28.50;101873.84;5077905;28;20452;-70
2022/05/08 06:39:13;;;;;;;15.38;4.25;;;;;;;21.01;28.76;101874.03;5072804;28;20472;-70
2022/05/08 06:41:41;;;;;;;24.70;4.90;;;;;;;21.21;28.39;101874.19;5080290;28;20071;-70
2022/05/08 06:44:08;;;;;;;20.90;5.65;;;;;;;20.92;29.63;101868.75;5073527;28;20055;-71
2022/05/08 06:46:35;;;;;;;27.35;6.22;;;;;;;20.97;29.32;101870.88;5076823;28;20051;-71
2022/05/08 06:49:02;;;;;;;16.48;4.55;;;;;;;21.16;29.42;101869.34;5075512;28;20079;-70
2022/05/08 06:51:29;;;;;;;20.58;4.88;;;;;;;21.51;28.99;101867.38;5074482;28;20124;-71
2022/05/08 06:53:56;;;;;;;23.58;4.38;;;;;;;21.52;29.13;101871.75;5074779;28;20094;-71
2022/05/08 06:56:22;;;;;;;18.55;4.07;;;;;;;21.80;28.72;101876.28;5073888;28;20123;-71
2022/05/08 07:01:42;;;;;;;13.93;4.97;;;;;;;22.29;28.23;101867.72;5073179;28;20041;-71
2022/05/08 07:04:10;;;;;;;21.33;4.65;;;;;;;22.40;28.13;101868.16;5074028;28;20502;-71
2022/05/08 07:06:39;;;;;;;16.08;4.65;;;;;;;22.78;27.65;101874.63;5073558;28;20068;-72
2022/05/08 07:09:13;;;;;;;19.45;4.45;;;;;;;22.63;27.47;101876.75;5075537;28;20052;-71
2022/05/08 07:11:41;;;;;;;26.92;6.32;;;;;;;23.10;27.09;101877.50;5079101;28;20052;-72
2022/05/08 07:14:08;;;;;;;17.42;5.43;;;;;;;23.66;26.72;101876.00;5061742;28;20401;-71
2022/05/08 07:16:34;;;;;;;21.50;5.45;;;;;;;24.01;26.05;101879.16;5078674;28;20127;-71
2022/05/08 07:19:01;;;;;;;19.00;5.60;;;;;;;24.61;25.46;101885.03;5076435;28;20127;-70
2022/05/08 07:21:27;;;;;;;21.90;5.30;;;;;;;24.48;25.56;101879.66;5076638;28;20045;-71
2022/05/08 07:23:55;;;;;;;15.02;4.63;;;;;;;25.43;24.55;101882.00;5076390;28;20139;-72
2022/05/08 07:26:21;;;;;;;18.25;4.60;;;;;;;24.94;24.77;101872.00;5074535;28;20048;-71
2022/05/08 07:28:48;;;;;;;14.55;4.70;;;;;;;25.27;24.57;101882.63;5075016;28;20558;-71
2022/05/08 07:31:15;;;;;;;13.77;4.45;;;;;;;25.55;24.28;101879.31;5075809;28;20394;-70
2022/05/08 07:33:41;;;;;;;15.57;5.57;;;;;;;26.14;23.81;101880.34;5075845;28;20130;-71
2022/05/08 07:36:14;;;;;;;16.67;4.93;;;;;;;26.47;23.22;101888.06;5075171;28;20120;-70
2022/05/08 07:38:45;;;;;;;20.20;5.30;;;;;;;26.44;22.96;101876.69;5075095;28;20484;-71
2022/05/08 07:41:17;;;;;;;17.13;4.07;;;;;;;25.45;24.25;101890.84;5075154;28;20138;-71
2022/05/08 07:43:46;;;;;;;17.90;4.18;;;;;;;25.03;25.01;101882.50;5074226;28;20443;-70
2022/05/08 07:46:14;;;;;;;17.67;3.92;;;;;;;25.68;23.97;101883.78;5072166;28;20071;-70
2022/05/08 07:48:41;;;;;;;14.27;3.53;;;;;;;26.65;22.94;101889.00;5074621;28;20048;-72
2022/05/08 07:51:07;;;;;;;16.85;3.97;;;;;;;27.37;22.03;101884.03;5070786;28;20084;-70
2022/05/08 07:53:33;;;;;;;23.08;4.20;;;;;;;27.17;22.37;101891.84;5074126;28;20044;-71
2022/05/08 07:56:04;;;;;;;13.70;3.75;;;;;;;27.22;22.70;101889.19;5080996;28;20052;-76
2022/05/08 07:58:33;;;;;;;12.38;3.92;;;;;;;26.97;22.43;101884.81;5078517;28;20075;-70
2022/05/08 08:01:04;;;;;;;26.52;4.63;;;;;;;27.35;21.60;101888.97;5074585;28;20128;-72
2022/05/08 08:03:32;;;;;;;13.27;3.58;;;;;;;27.89;20.98;101885.84;5074563;28;20465;-71
2022/05/08 08:06:00;;;;;;;12.23;3.30;;;;;;;27.78;20.95;101895.84;5072062;28;20072;-71
2022/05/08 08:08:35;;;;;;;14.25;3.95;;;;;;;27.83;20.53;101889.56;5068969;28;20090;-70
2022/05/08 08:11:03;;;;;;;12.35;3.17;;;;;;;27.48;20.57;101894.16;5072656;28;20052;-70
2022/05/08 08:13:32;;;;;;;12.25;3.05;;;;;;;27.88;20.16;101898.81;5074099;28;20056;-69
2022/05/08 08:15:59;;;;;;;13.43;3.38;;;;;;;28.08;20.26;101892.81;5074175;28;20048;-69
2022/05/08 08:18:26;;;;;;;14.40;3.50;;;;;;;28.36;19.56;101889.13;5071864;28;20484;-70
2022/05/08 08:20:53;;;;;;;13.85;3.60;;;;;;;28.04;19.74;101897.16;5071895;28;20049;-71
2022/05/08 08:23:19;;;;;;;23.38;4.15;;;;;;;28.00;19.62;101898.72;5075012;28;20075;-70
2022/05/08 08:25:46;;;;;;;14.77;4.03;;;;;;;28.44;19.12;101901.69;5073601;28;20139;-71
2022/05/08 08:28:12;;;;;;;14.30;4.10;;;;;;;28.23;18.97;101899.69;5074035;28;20512;-70
2022/05/08 08:30:39;;;;;;;16.92;4.10;;;;;;;29.40;18.08;101908.84;5075212;28;20059;-70
2022/05/08 08:33:05;;;;;;;15.65;3.60;;;;;;;29.20;18.41;101907.50;5073929;28;20556;-69
2022/05/08 08:35:32;;;;;;;26.42;4.78;;;;;;;29.30;17.99;101913.16;5074727;28;21893;-71
2022/05/08 08:37:58;;;;;;;11.98;3.63;;;;;;;28.91;18.97;101906.81;5075054;28;20079;-71
2022/05/08 08:40:27;;;;;;;13.70;3.50;;;;;;;28.91;18.47;101913.19;5058812;28;20072;-69
2022/05/08 08:42:56;;;;;;;10.90;3.58;;;;;;;28.46;19.31;101916.09;5075872;28;20072;-71
2022/05/08 08:48:27;;;;;;;15.27;3.72;;;;;;;29.42;18.31;101923.25;5075233;28;20070;-70
2022/05/08 08:50:55;;;;;;;10.18;3.42;;;;;;;28.71;18.80;101923.09;5075179;28;20052;-70
2022/05/08 08:53:22;;;;;;;12.23;4.00;;;;;;;30.00;17.92;101921.72;5074370;28;20045;-70
2022/05/08 08:55:50;;;;;;;16.67;4.10;;;;;;;30.10;18.10;101920.97;5074092;28;20071;-70
2022/05/08 08:58:17;;;;;;;13.75;3.72;;;;;;;29.84;18.08;101924.31;5073598;28;20109;-70
2022/05/08 09:00:47;;;;;;;12.18;3.13;;;;;;;30.00;17.92;101925.31;5073670;28;20079;-71
2022/05/08 09:03:25;;;;;;;12.73;3.67;;;;;;;29.27;18.65;101924.72;5073267;28;20052;-70
2022/05/08 09:05:54;;;;;;;11.75;3.20;;;;;;;29.46;18.13;101929.91;5073774;28;20040;-71
2022/05/08 09:08:29;;;;;;;15.05;3.72;;;;;;;29.46;18.66;101919.72;5073045;28;20131;-70
2022/05/08 09:10:58;;;;;;;9.23;2.95;;;;;;;30.71;17.13;101918.69;5074282;28;20055;-70
2022/05/08 09:13:28;;;;;;;10.82;3.30;;;;;;;30.68;17.08;101916.47;5073364;28;20469;-71
2022/05/08 09:16:05;;;;;;;9.27;3.15;;;;;;;30.11;17.52;101919.88;5074172;28;20048;-70
2022/05/08 09:18:46;;;;;;;16.20;3.72;;;;;;;30.75;16.65;101925.38;5072757;28;20044;-69
2022/05/08 09:24:09;;;;;;;12.82;3.10;;;;;;;29.59;17.70;101924.84;5072113;28;20051;-71
2022/05/08 09:26:36;;;;;;;11.10;3.40;;;;;;;30.71;16.95;101914.00;5072597;28;20136;-71
2022/05/08 09:29:04;;;;;;;11.50;3.70;;;;;;;30.49;16.59;101922.38;5072380;28;20076;-71
2022/05/08 09:31:41;;;;;;;14.27;3.78;;;;;;;28.61;18.49;101916.31;5074463;28;20218;-70
2022/05/08 09:34:14;;;;;;;14.80;5.57;;;;;;;29.88;17.65;101921.00;5074535;28;20049;-70
2022/05/08 09:36:41;;;;;;;18.52;4.43;;;;;;;30.72;16.82;101923.13;5072247;28;20048;-71
2022/05/08 09:39:07;;;;;;;13.25;3.60;;;;;;;30.56;17.16;101919.41;5073154;28;20489;-71
2022/05/08 09:41:38;;;;;;;12.23;3.47;;;;;;;29.69;17.42;101904.78;5073268;28;20079;-71
2022/05/08 09:44:13;;;;;;;9.38;3.05;;;;;;;30.42;16.52;101915.41;5074110;28;20052;-70
2022/05/08 09:46:44;;;;;;;9.43;3.08;;;;;;;27.40;19.27;101918.53;5072776;28;20045;-70
2022/05/08 09:49:12;;;;;;;16.35;3.08;;;;;;;30.24;16.37;101914.72;5071548;28;20048;-71
2022/05/08 09:51:41;;;;;;;8.32;2.92;;;;;;;29.80;16.99;101920.38;5052798;28;20052;-70
2022/05/08 09:54:09;;;;;;;11.30;3.30;;;;;;;30.06;16.67;101917.91;5071302;28;20120;-70
2022/05/08 09:56:36;;;;;;;7.88;3.30;;;;;;;30.95;15.85;101919.09;5071628;28;20123;-70
2022/05/08 09:59:07;;;;;;;10.15;3.20;;;;;;;31.30;15.63;101926.78;5069596;28;20515;-71
2022/05/08 10:01:34;;;;;;;13.77;2.93;;;;;;;31.19;14.96;101919.53;5062476;28;20125;-71
2022/05/08 10:04:01;;;;;;;8.00;2.53;;;;;;;31.36;14.74;101919.31;5072439;28;20298;-71
2022/05/08 10:06:28;;;;;;;9.13;2.85;;;;;;;30.82;15.04;101919.59;5071543;28;20051;-71
2022/05/08 10:13:53;;;;;;;10.07;2.75;;;;;;;31.89;14.67;101918.09;5071544;28;20064;-71
2022/05/08 10:14:33;;;;;;;13.40;2.85;;;;;;;30.96;14.30;101915.25;5072005;28;20044;-71
2022/05/08 10:16:59;;;;;;;12.90;3.60;;;;;;;31.43;14.06;101929.03;5072239;28;20094;-71
2022/05/08 10:19:26;;;;;;;11.05;3.05;;;;;;;31.39;14.61;101925.16;5072568;28;20497;-71
2022/05/08 10:21:55;;;;;;;8.75;2.95;;;;;;;32.14;13.83;101924.81;5071375;28;20116;-70
2022/05/08 10:24:35;;;;;;;9.80;3.20;;;;;;;31.66;14.06;101924.97;5073243;28;20045;-70
2022/05/08 10:27:17;;;;;;;15.80;3.70;;;;;;;30.10;15.58;101919.03;5072163;28;20453;-70
2022/05/08 10:30:03;;;;;;;8.68;3.22;;;;;;;30.03;15.64;101929.50;5057141;28;20044;-72
2022/05/08 10:32:33;;;;;;;11.70;3.53;;;;;;;30.45;15.24;101923.19;5056801;28;20049;-70
2022/05/08 10:35:03;;;;;;;17.52;3.67;;;;;;;30.21;15.57;101922.72;5073451;28;20056;-70
2022/05/08 10:37:30;;;;;;;14.07;3.38;;;;;;;28.28;16.42;101919.06;5072732;28;20449;-70
2022/05/08 10:39:57;;;;;;;13.32;4.57;;;;;;;29.14;15.83;101912.13;5073549;28;20064;-71
2022/05/08 10:42:27;;;;;;;17.50;6.60;;;;;;;29.85;15.69;101912.13;5070635;28;20094;-70
2022/05/08 10:44:55;;;;;;;10.30;3.63;;;;;;;29.11;15.91;101911.78;5071117;28;20136;-71
2022/05/08 10:47:37;;;;;;;11.35;2.63;;;;;;;30.29;15.46;101917.56;5077419;28;20131;-71
2022/05/08 10:50:04;;;;;;;;;;;;;;;30.57;15.92;101907.25;5076920;28;20528;-65
2022/05/08 10:52:33;;;;;;;18.55;3.55;;;;;;;29.43;16.42;101914.69;5075831;28;20419;-65
2022/05/08 10:55:01;;;;;;;16.60;3.25;;;;;;;29.03;16.70;101907.56;5077907;28;20075;-65
2022/05/08 10:57:29;;;;;;;11.90;2.92;;;;;;;28.63;16.63;101908.63;5072820;28;20051;-65
2022/05/08 10:59:56;;;;;;;17.90;3.63;;;;;;;28.43;20.73;101903.63;5077659;28;20123;-64
2022/05/08 11:02:42;;;;;;;19.42;4.32;;;;;;;28.86;20.62;101903.97;5076920;28;20139;-65
2022/05/08 11:05:11;;;;;;;14.35;3.10;;;;;;;27.92;21.17;101902.75;5075740;28;20079;-65
2022/05/08 11:07:38;;;;;;;7.78;2.67;;;;;;;27.05;19.82;101908.41;5072922;28;20045;-68
2022/05/08 11:10:15;;;;;;;11.00;2.92;;;;;;;26.89;18.75;101906.38;5076415;28;20132;-68
2022/05/08 11:13:01;;;;;;;11.75;2.70;;;;;;;27.59;19.88;101902.63;5076853;28;20079;-69
2022/05/08 11:15:32;;;;;;;10.57;2.80;;;;;;;27.53;18.40;101900.88;5078254;28;20120;-68
2022/05/08 11:18:10;;;;;;;9.30;2.45;;;;;;;25.64;18.75;101901.81;5077732;28;20123;-68
2022/05/08 11:20:48;;;;;;;11.32;3.13;;;;;;;26.99;17.67;101899.16;5060343;28;20471;-68
2022/05/08 11:23:16;;;;;;;9.90;2.42;;;;;;;28.11;17.30;101894.22;5077648;28;20041;-68
2022/05/08 11:25:48;;;;;;;9.85;2.65;;;;;;;27.69;17.01;101902.81;5076382;28;20131;-69
2022/05/08 11:28:18;;;;;;;16.88;3.08;;;;;;;28.15;16.83;101898.19;5074693;28;20056;-69
2022/05/08 11:30:46;;;;;;;9.67;2.50;;;;;;;29.31;16.30;101895.47;5073528;28;20048;-69
2022/05/08 11:36:05;;;;;;;11.93;2.45;;;;;;;29.47;15.18;101898.44;5074660;28;20048;-69
2022/05/08 11:38:50;;;;;;;11.43;2.72;;;;;;;29.59;15.00;101896.38;5076651;28;20112;-69
2022/05/08 11:41:22;;;;;;;12.85;3.00;;;;;;;29.14;16.07;101905.75;5077149;28;20036;-69
2022/05/08 11:43:50;;;;;;;11.50;2.78;;;;;;;29.14;15.88;101892.78;5075846;28;20044;-70
2022/05/08 11:46:19;;;;;;;13.55;3.20;;;;;;;28.36;16.31;101905.69;5076234;28;20445;-69
2022/05/08 11:48:50;;;;;;;9.88;2.58;;;;;;;27.70;16.63;101907.28;5075204;28;20443;-69
2022/05/08 11:51:20;;;;;;;10.88;2.85;;;;;;;27.50;17.49;101905.78;5077035;28;20044;-69